Time;durP1;ratioP1;P1;durP2;ratioP2;P2;SDS_P1;SDS_P2;PMS_P1;PMS_P2;Temp;Humidity;BMP_temperature;BMP_pressure;BME280_temperature;BME280_humidity;BME280_pressure;Samples;Min_cycle;Max_cycle;Signal;HPM_P1;HPM_P2
2021/12/13 00:01:05;;;;;;;6.43;5.22;;;6.90;99.90;;;;;;5031911;28;20494;-65
2021/12/13 00:03:46;;;;;;;6.45;4.88;;;7.10;99.90;;;;;;5032181;28;20395;-64
2021/12/13 00:06:18;;;;;;;8.05;5.25;;;6.30;99.90;;;;;;5031548;28;20021;-65
2021/12/13 00:08:50;;;;;;;8.75;5.63;;;6.70;99.90;;;;;;5032212;28;20034;-64
2021/12/13 00:11:28;;;;;;;6.78;5.00;;;6.50;99.90;;;;;;5032002;28;20507;-64
2021/12/13 00:14:13;;;;;;;6.57;5.03;;;6.20;99.90;;;;;;5032025;28;20082;-64
2021/12/13 00:16:44;;;;;;;5.25;4.47;;;6.70;99.90;;;;;;5031116;28;20033;-65
2021/12/13 00:19:15;;;;;;;6.07;4.50;;;6.40;99.90;;;;;;5031908;28;20018;-65
2021/12/13 00:21:44;;;;;;;5.03;4.47;;;7.20;99.90;;;;;;5031096;28;20018;-65
2021/12/13 00:24:26;;;;;;;6.28;5.05;;;6.90;99.90;;;;;;5031795;28;20021;-66
2021/12/13 00:27:05;;;;;;;8.25;5.68;;;6.70;99.90;;;;;;5031815;28;20526;-65
2021/12/13 00:30:04;;;;;;;7.85;5.70;;;6.30;99.90;;;;;;5032131;28;20033;-65
2021/12/13 00:32:56;;;;;;;8.07;5.45;;;6.30;99.90;;;;;;5031678;28;20031;-65
2021/12/13 00:35:25;;;;;;;6.68;5.57;;;6.20;99.90;;;;;;5031368;28;20047;-64
2021/12/13 00:38:00;;;;;;;8.95;5.57;;;6.50;99.90;;;;;;5031851;28;20075;-65
2021/12/13 00:40:33;;;;;;;8.13;5.88;;;6.10;99.90;;;;;;5031624;28;20510;-65
2021/12/13 00:43:14;;;;;;;10.23;6.18;;;7.40;99.90;;;;;;5031802;28;20025;-65
2021/12/13 00:45:59;;;;;;;11.73;6.07;;;5.90;99.90;;;;;;5030932;28;20097;-65
2021/12/13 00:48:28;;;;;;;8.05;6.03;;;6.00;99.90;;;;;;5031550;28;20560;-65
2021/12/13 00:51:03;;;;;;;5.60;4.88;;;6.90;99.90;;;;;;5031515;28;20040;-65
2021/12/13 00:53:36;;;;;;;11.73;6.03;;;7.60;99.90;;;;;;5031209;28;20029;-64
2021/12/13 00:56:40;;;;;;;7.97;5.95;;;6.40;99.90;;;;;;5030831;28;20037;-64
2021/12/13 00:59:08;;;;;;;6.97;5.72;;;7.00;99.90;;;;;;5031134;28;20060;-64
2021/12/13 01:01:35;;;;;;;7.78;5.85;;;6.50;99.90;;;;;;5031049;28;20040;-65
2021/12/13 01:04:07;;;;;;;8.13;5.53;;;6.40;99.90;;;;;;5031010;28;20029;-65
2021/12/13 01:06:42;;;;;;;7.75;6.00;;;6.60;99.90;;;;;;5029775;28;20116;-65
2021/12/13 01:09:38;;;;;;;9.02;5.85;;;7.20;99.90;;;;;;5030910;28;20442;-65
2021/12/13 01:12:18;;;;;;;9.10;6.50;;;7.30;99.90;;;;;;5031544;28;20028;-64
2021/12/13 01:14:45;;;;;;;9.27;6.60;;;6.40;99.90;;;;;;5030682;28;20032;-65
2021/12/13 01:17:23;;;;;;;8.48;6.13;;;6.80;99.90;;;;;;5031116;28;20040;-65
2021/12/13 01:19:59;;;;;;;12.80;6.40;;;6.80;99.90;;;;;;5031285;28;20052;-65
2021/12/13 01:23:02;;;;;;;9.43;6.63;;;6.60;99.90;;;;;;5031417;28;20025;-65
2021/12/13 01:28:32;;;;;;;11.15;6.93;;;7.40;99.90;;;;;;5030139;28;20540;-65
2021/12/13 01:31:00;;;;;;;12.93;6.65;;;6.40;99.90;;;;;;5020353;28;20087;-65
2021/12/13 01:33:28;;;;;;;9.38;6.43;;;6.40;99.90;;;;;;5033779;28;20053;-65
2021/12/13 01:35:56;;;;;;;12.70;6.70;;;6.80;99.90;;;;;;5034353;28;20032;-64
2021/12/13 01:38:33;;;;;;;8.27;5.93;;;6.50;99.90;;;;;;5034778;28;20025;-65
2021/12/13 01:41:07;;;;;;;9.63;6.78;;;6.50;99.90;;;;;;5034755;28;20033;-65
2021/12/13 01:43:35;;;;;;;7.68;6.25;;;6.40;99.90;;;;;;5035044;28;20057;-65
2021/12/13 01:46:00;;;;;;;9.20;7.03;;;6.80;99.90;;;;;;5033976;28;20468;-65
2021/12/13 01:48:39;;;;;;;8.55;6.25;;;6.60;99.90;;;;;;5034441;28;20043;-65
2021/12/13 01:51:11;;;;;;;10.25;6.97;;;6.70;99.90;;;;;;5034810;28;20033;-65
2021/12/13 01:53:47;;;;;;;8.88;6.60;;;6.70;99.90;;;;;;5034354;28;20040;-65
2021/12/13 01:56:55;;;;;;;9.52;6.93;;;6.60;99.90;;;;;;5033933;28;20036;-64
2021/12/13 02:02:30;;;;;;;9.30;6.82;;;7.00;99.90;;;;;;5034410;28;20032;-65
2021/12/13 02:05:20;;;;;;;11.95;7.55;;;6.30;99.90;;;;;;5033815;28;20104;-65
2021/12/13 02:07:52;;;;;;;12.38;7.90;;;6.90;99.90;;;;;;5034384;28;20025;-65
2021/12/13 02:10:29;;;;;;;;;;;5.90;99.90;;;;;;5034733;28;20140;-65
2021/12/13 02:13:00;;;;;;;10.75;7.90;;;;;;;;;;5034387;28;19952;-65
2021/12/13 02:18:16;;;;;;;10.82;7.78;;;6.40;99.90;;;;;;5034196;28;20091;-65
2021/12/13 02:20:47;;;;;;;11.30;7.90;;;6.70;99.90;;;;;;5033993;28;20022;-65
2021/12/13 02:23:13;;;;;;;10.07;7.22;;;7.20;99.90;;;;;;5034291;28;20022;-65
2021/12/13 02:25:46;;;;;;;9.65;7.45;;;6.70;99.90;;;;;;5033372;28;20029;-65
2021/12/13 02:28:14;;;;;;;11.90;7.30;;;6.60;99.90;;;;;;5034149;28;20025;-65
2021/12/13 02:30:45;;;;;;;10.20;7.38;;;6.40;99.90;;;;;;5033770;28;20545;-65
2021/12/13 02:33:16;;;;;;;8.63;6.95;;;6.60;99.90;;;;;;5034044;28;20030;-65
2021/12/13 02:35:53;;;;;;;13.43;7.60;;;6.50;99.90;;;;;;5033407;28;20029;-65
2021/12/13 02:38:21;;;;;;;8.45;7.18;;;6.20;99.90;;;;;;5033922;28;20084;-65
2021/12/13 02:40:48;;;;;;;10.05;7.07;;;7.20;99.90;;;;;;5033848;28;20021;-65
2021/12/13 02:43:19;;;;;;;11.18;7.60;;;6.30;99.90;;;;;;5033414;28;20122;-65
2021/12/13 02:45:49;;;;;;;11.32;8.20;;;6.30;99.90;;;;;;5032368;28;20026;-65
2021/12/13 02:48:31;;;;;;;10.38;8.23;;;6.00;99.90;;;;;;5033617;28;20021;-65
2021/12/13 02:51:07;;;;;;;10.25;7.40;;;6.60;99.90;;;;;;5032419;28;20083;-65
2021/12/13 02:53:45;;;;;;;10.57;8.07;;;6.00;99.90;;;;;;5033462;28;20029;-65
2021/12/13 02:56:14;;;;;;;12.70;7.85;;;6.00;99.90;;;;;;5033105;28;20037;-65
2021/12/13 02:58:40;;;;;;;11.30;8.10;;;6.60;99.90;;;;;;5033010;28;20108;-65
2021/12/13 03:01:19;;;;;;;12.20;7.63;;;6.90;99.90;;;;;;5033075;28;20026;-65
2021/12/13 03:03:48;;;;;;;12.73;8.57;;;6.60;99.90;;;;;;5032002;28;20117;-65
2021/12/13 03:06:18;;;;;;;14.23;9.18;;;6.40;99.90;;;;;;5032588;28;20018;-65
2021/12/13 03:08:50;;;;;;;11.25;7.82;;;6.50;99.90;;;;;;5033283;28;20025;-65
2021/12/13 03:11:24;;;;;;;9.63;7.90;;;6.50;99.90;;;;;;5033178;28;20033;-65
2021/12/13 03:13:58;;;;;;;11.10;7.80;;;6.70;99.90;;;;;;5033160;28;20028;-65
2021/12/13 03:16:29;;;;;;;12.98;8.13;;;6.70;99.90;;;;;;5032324;28;20033;-65
2021/12/13 03:19:02;;;;;;;13.63;8.40;;;6.20;99.90;;;;;;5032508;28;20037;-65
2021/12/13 03:22:04;;;;;;;11.77;8.05;;;5.80;99.90;;;;;;5032993;28;20037;-65
2021/12/13 03:24:36;;;;;;;10.77;7.50;;;6.00;99.90;;;;;;5032259;28;20021;-65
2021/12/13 03:27:04;;;;;;;10.73;7.53;;;6.40;99.90;;;;;;5032730;28;20068;-65
2021/12/13 03:30:01;;;;;;;11.48;8.57;;;6.20;99.90;;;;;;5032827;28;20052;-65
2021/12/13 03:32:40;;;;;;;11.48;7.88;;;6.50;99.90;;;;;;5032515;28;20032;-65
2021/12/13 03:35:08;;;;;;;12.32;8.00;;;6.40;99.90;;;;;;5031997;28;20029;-65
2021/12/13 03:37:35;;;;;;;12.40;8.20;;;6.20;99.90;;;;;;5032453;28;20108;-65
2021/12/13 03:40:13;;;;;;;12.95;9.10;;;5.90;99.90;;;;;;5032774;28;20024;-65
2021/12/13 03:42:48;;;;;;;11.90;7.95;;;7.00;99.90;;;;;;5024733;28;20030;-65
2021/12/13 03:45:19;;;;;;;9.90;7.53;;;6.10;99.90;;;;;;5012080;28;20405;-65
2021/12/13 03:47:50;;;;;;;11.60;8.25;;;7.40;99.90;;;;;;5012624;28;20033;-65
2021/12/13 03:50:20;;;;;;;10.23;7.55;;;6.10;99.90;;;;;;5012683;28;20029;-65
2021/12/13 03:52:49;;;;;;;18.15;8.40;;;7.20;99.90;;;;;;5012071;28;20030;-65
2021/12/13 03:55:20;;;;;;;11.70;7.95;;;6.10;99.90;;;;;;5011814;28;20388;-65
2021/12/13 03:57:49;;;;;;;13.90;8.98;;;6.10;99.90;;;;;;5012450;28;20029;-64
2021/12/13 04:00:21;;;;;;;11.32;7.47;;;6.80;99.90;;;;;;5014213;28;20034;-65
2021/12/13 04:02:48;;;;;;;12.02;8.20;;;6.70;99.90;;;;;;5031917;28;20071;-64
2021/12/13 04:05:19;;;;;;;12.93;8.75;;;6.40;99.90;;;;;;5031541;28;20032;-65
2021/12/13 04:07:49;;;;;;;14.70;9.00;;;6.60;99.90;;;;;;5032044;28;20037;-64
2021/12/13 04:10:17;;;;;;;12.90;8.88;;;6.40;99.90;;;;;;5031385;28;20047;-64
2021/12/13 04:12:50;;;;;;;13.18;9.30;;;5.80;99.90;;;;;;5031119;28;20025;-64
2021/12/13 04:19:26;;;;;;;14.07;8.65;;;6.40;99.90;;;;;;5028194;28;20361;-64
2021/12/13 04:21:55;;;;;;;13.52;8.85;;;6.20;99.90;;;;;;5021548;28;20079;-66
2021/12/13 04:24:39;;;;;;;14.57;9.10;;;6.00;99.90;;;;;;5031617;28;20109;-66
2021/12/13 04:27:18;;;;;;;15.95;9.35;;;6.90;99.90;;;;;;5032006;28;20037;-65
2021/12/13 04:29:46;;;;;;;13.10;9.65;;;6.80;99.90;;;;;;5031755;28;20021;-65
2021/12/13 04:32:23;;;;;;;12.60;9.30;;;6.00;99.90;;;;;;5031552;28;20060;-65
2021/12/13 04:34:53;;;;;;;13.05;9.27;;;6.00;99.90;;;;;;5031405;28;20037;-65
2021/12/13 04:37:22;;;;;;;14.48;9.52;;;6.20;99.90;;;;;;5031676;28;20105;-63
2021/12/13 04:39:53;;;;;;;13.45;9.50;;;5.90;99.90;;;;;;5031517;28;20027;-64
2021/12/13 04:42:22;;;;;;;15.40;10.33;;;6.10;99.90;;;;;;5031690;28;20029;-64
2021/12/13 04:44:53;;;;;;;14.10;9.90;;;5.50;99.90;;;;;;5029652;28;20296;-63
2021/12/13 04:47:24;;;;;;;14.23;8.48;;;6.30;99.90;;;;;;5018411;28;20087;-64
2021/12/13 04:50:18;;;;;;;12.45;9.07;;;6.60;99.90;;;;;;5067580;23;20443;-63
2021/12/13 04:52:46;;;;;;;14.70;10.13;;;6.20;99.90;;;;;;5065110;28;20492;-63
2021/12/13 04:55:17;;;;;;;12.85;9.35;;;6.20;99.90;;;;;;5063049;28;20103;-62
2021/12/13 04:57:43;;;;;;;12.87;9.67;;;5.70;99.90;;;;;;5072098;28;20024;-62
2021/12/13 05:00:14;;;;;;;15.35;9.23;;;6.10;99.90;;;;;;5051332;28;20021;-64
2021/12/13 05:02:46;;;;;;;13.45;9.50;;;6.80;99.90;;;;;;5059245;28;20020;-64
2021/12/13 05:05:13;;;;;;;13.65;9.32;;;6.20;99.90;;;;;;5063112;28;20029;-64
2021/12/13 05:07:41;;;;;;;13.95;9.15;;;5.50;99.90;;;;;;5073405;28;20060;-65
2021/12/13 05:10:08;;;;;;;15.15;9.18;;;6.20;99.90;;;;;;5075526;28;20032;-65
2021/12/13 05:12:34;;;;;;;13.52;9.57;;;7.10;99.90;;;;;;5076138;28;20485;-64
2021/12/13 05:15:04;;;;;;;15.23;9.73;;;6.10;99.90;;;;;;5075689;28;20100;-62
2021/12/13 05:17:43;;;;;;;13.27;9.02;;;6.50;99.90;;;;;;5068877;28;20118;-68
2021/12/13 05:20:12;;;;;;;12.05;8.93;;;5.80;99.90;;;;;;5073843;28;20359;-64
2021/12/13 05:22:51;;;;;;;12.57;8.73;;;6.10;99.90;;;;;;5076214;28;20028;-65
2021/12/13 05:25:40;;;;;;;11.10;8.23;;;;;;;;;;5074760;28;20410;-65
2021/12/13 05:28:29;;;;;;;14.57;9.57;;;7.10;99.90;;;;;;5056993;28;20056;-70
2021/12/13 05:31:04;;;;;;;11.93;8.60;;;6.20;99.90;;;;;;5067389;28;20025;-70
2021/12/13 05:33:36;;;;;;;16.15;8.93;;;6.40;99.90;;;;;;5068704;28;20024;-69
2021/12/13 05:36:08;;;;;;;12.02;8.77;;;6.00;99.90;;;;;;5063388;28;20174;-69
2021/12/13 05:38:41;;;;;;;;;;;6.30;99.90;;;;;;5060705;28;20781;-70
2021/12/13 05:41:11;;;;;;;12.95;9.20;;;6.80;99.90;;;;;;5074209;28;19927;-70
2021/12/13 05:43:48;;;;;;;14.27;9.40;;;6.90;99.90;;;;;;5075153;28;20391;-71
2021/12/13 05:46:36;;;;;;;14.35;9.10;;;6.70;99.90;;;;;;5071466;28;20021;-69
2021/12/13 05:49:06;;;;;;;13.25;9.18;;;7.00;99.90;;;;;;5062907;28;20052;-69
2021/12/13 05:51:31;;;;;;;12.70;9.30;;;6.10;99.90;;;;;;5075209;28;20498;-69
2021/12/13 05:54:02;;;;;;;14.55;9.93;;;6.20;99.90;;;;;;5095629;28;20040;-71
2021/12/13 05:56:35;;;;;;;12.32;8.98;;;;;;;;;;5089414;28;20047;-70
2021/12/13 05:59:26;;;;;;;13.25;9.65;;;6.00;99.90;;;;;;5074763;28;20099;-69
2021/12/13 06:02:16;;;;;;;14.82;9.73;;;5.80;99.90;;;;;;5074879;28;20083;-69
2021/12/13 06:04:44;;;;;;;15.80;9.73;;;5.40;99.90;;;;;;5074206;28;20035;-75
2021/12/13 06:07:20;;;;;;;13.55;8.30;;;6.40;99.90;;;;;;5074526;28;20039;-70
2021/12/13 06:09:51;;;;;;;12.70;9.20;;;6.40;99.90;;;;;;5074145;28;20025;-72
2021/12/13 06:12:51;;;;;;;14.25;9.75;;;6.80;99.90;;;;;;5073403;28;20029;-71
2021/12/13 06:15:16;;;;;;;15.40;9.50;;;7.40;99.90;;;;;;5073439;28;20028;-71
2021/12/13 06:17:48;;;;;;;15.15;9.00;;;6.30;99.90;;;;;;5072464;28;20039;-70
2021/12/13 06:20:21;;;;;;;12.33;9.63;;;6.00;99.90;;;;;;5072120;28;20032;-72
2021/12/13 06:22:47;;;;;;;13.13;8.63;;;6.30;99.90;;;;;;5074262;28;20093;-72
2021/12/13 06:25:18;;;;;;;14.25;9.18;;;6.50;99.90;;;;;;5073591;28;20025;-71
2021/12/13 06:27:45;;;;;;;15.00;8.95;;;6.30;99.90;;;;;;5074171;28;20024;-70
2021/12/13 06:30:40;;;;;;;15.05;9.00;;;6.50;99.90;;;;;;5073520;28;20043;-71
2021/12/13 06:33:14;;;;;;;13.50;8.75;;;6.60;99.90;;;;;;5072866;28;20096;-71
2021/12/13 06:35:50;;;;;;;16.10;9.10;;;6.30;99.90;;;;;;5072047;28;20036;-70
2021/12/13 06:38:38;;;;;;;13.40;8.32;;;6.50;99.90;;;;;;5073771;28;20052;-70
2021/12/13 06:41:25;;;;;;;18.02;9.70;;;6.30;99.90;;;;;;5073318;28;20075;-69
2021/12/13 06:44:03;;;;;;;15.82;9.07;;;6.20;99.90;;;;;;5073675;28;20024;-70
2021/12/13 06:46:48;;;;;;;14.65;9.43;;;6.40;99.90;;;;;;5072476;28;20569;-70
2021/12/13 06:49:19;;;;;;;17.75;8.52;;;5.80;99.90;;;;;;5073269;28;20398;-70
2021/12/13 06:52:05;;;;;;;19.00;9.75;;;5.90;99.90;;;;;;5074574;28;20040;-70
2021/12/13 06:54:33;;;;;;;20.05;9.50;;;6.10;99.90;;;;;;5072672;28;20037;-70
2021/12/13 06:57:10;;;;;;;13.73;8.55;;;6.50;99.90;;;;;;5073657;28;20047;-70
2021/12/13 07:00:08;;;;;;;15.95;9.73;;;6.30;99.90;;;;;;5072988;28;20021;-69
2021/12/13 07:02:40;;;;;;;16.88;9.93;;;6.20;99.90;;;;;;5049901;28;20438;-69
2021/12/13 07:05:05;;;;;;;19.10;9.68;;;6.10;99.90;;;;;;5072634;28;20021;-69
2021/12/13 07:07:54;;;;;;;16.33;9.55;;;6.50;99.90;;;;;;5073441;28;20024;-70
2021/12/13 07:10:41;;;;;;;24.08;11.60;;;6.40;99.90;;;;;;5073074;28;20056;-70
2021/12/13 07:13:11;;;;;;;25.58;10.23;;;6.30;99.90;;;;;;5073309;28;20071;-69
2021/12/13 07:15:42;;;;;;;19.38;10.82;;;6.00;99.90;;;;;;5072508;28;20074;-69
2021/12/13 07:18:08;;;;;;;22.30;11.90;;;6.60;99.90;;;;;;5073066;28;20044;-69
2021/12/13 07:20:46;;;;;;;25.40;12.43;;;6.20;99.90;;;;;;5072151;28;20020;-70
2021/12/13 07:23:12;;;;;;;26.65;11.63;;;6.80;99.90;;;;;;5073300;28;20021;-70
2021/12/13 07:25:39;;;;;;;22.85;10.52;;;6.10;99.90;;;;;;5070731;28;20024;-70
2021/12/13 07:28:06;;;;;;;22.27;11.43;;;5.90;99.90;;;;;;5072945;28;20028;-71
2021/12/13 07:30:33;;;;;;;23.63;11.48;;;6.30;99.90;;;;;;5072577;28;20036;-69
2021/12/13 07:33:07;;;;;;;25.40;11.85;;;6.60;99.90;;;;;;5072404;28;20486;-69
2021/12/13 07:35:46;;;;;;;22.75;11.60;;;6.00;99.90;;;;;;5072077;28;20036;-69
2021/12/13 07:38:17;;;;;;;28.52;12.18;;;6.00;99.90;;;;;;5072589;28;20067;-70
2021/12/13 07:40:45;;;;;;;23.23;11.27;;;6.10;99.90;;;;;;5072583;28;20052;-70
2021/12/13 07:43:13;;;;;;;20.23;11.55;;;6.00;99.90;;;;;;5072562;28;20028;-70
2021/12/13 07:45:54;;;;;;;23.13;12.52;;;5.90;99.90;;;;;;5071544;28;20029;-64
2021/12/13 07:48:22;;;;;;;29.83;13.68;;;6.20;99.90;;;;;;5072346;28;20037;-67
2021/12/13 07:51:19;;;;;;;21.30;12.32;;;5.80;99.90;;;;;;5071968;28;20033;-65
2021/12/13 07:54:06;;;;;;;26.30;13.55;;;5.80;99.90;;;;;;5071982;28;20024;-64
2021/12/13 07:56:32;;;;;;;26.30;13.82;;;6.10;99.90;;;;;;5071715;28;20020;-63
2021/12/13 07:59:26;;;;;;;28.60;14.77;;;6.10;99.90;;;;;;5071977;28;20081;-65
2021/12/13 08:02:26;;;;;;;23.70;13.35;;;5.90;99.90;;;;;;5068226;28;20116;-64
2021/12/13 08:04:55;;;;;;;23.98;13.70;;;5.70;99.90;;;;;;5065552;28;20029;-64
2021/12/13 08:07:39;;;;;;;23.00;14.05;;;5.90;99.90;;;;;;5072164;28;20086;-63
2021/12/13 08:10:23;;;;;;;28.27;14.60;;;5.60;99.90;;;;;;5071885;28;20106;-64
2021/12/13 08:13:03;;;;;;;28.40;14.68;;;5.90;99.90;;;;;;5072051;28;20025;-63
2021/12/13 08:15:39;;;;;;;24.13;15.48;;;6.00;99.90;;;;;;5071459;28;20211;-65
2021/12/13 08:18:22;;;;;;;32.53;14.27;;;6.30;99.90;;;;;;5072029;28;20032;-66
2021/12/13 08:20:54;;;;;;;22.90;14.70;;;6.00;99.90;;;;;;5071730;28;20474;-65
2021/12/13 08:23:27;;;;;;;21.10;12.75;;;6.00;99.90;;;;;;5071855;28;20021;-67
2021/12/13 08:25:58;;;;;;;22.17;13.35;;;6.50;99.90;;;;;;5071323;28;20025;-64
2021/12/13 08:28:33;;;;;;;25.40;13.32;;;9.70;99.90;;;;;;5071162;28;20028;-65
2021/12/13 08:31:00;;;;;;;22.45;12.52;;;6.50;99.90;;;;;;5062992;28;20090;-64
2021/12/13 08:33:31;;;;;;;22.27;13.27;;;6.20;99.90;;;;;;5071583;28;20112;-66
2021/12/13 08:36:18;;;;;;;29.40;13.75;;;6.80;99.90;;;;;;5071369;28;20066;-65
2021/12/13 08:38:50;;;;;;;26.65;13.40;;;6.00;99.90;;;;;;5071655;28;20049;-64
2021/12/13 08:41:57;;;;;;;20.25;12.27;;;6.50;99.90;;;;;;5071092;28;20024;-62
2021/12/13 08:44:32;;;;;;;20.88;11.95;;;6.40;99.90;;;;;;5059278;28;20052;-65
2021/12/13 08:47:15;;;;;;;22.23;12.43;;;5.70;99.90;;;;;;5071648;28;20078;-65
2021/12/13 08:49:58;;;;;;;21.38;12.40;;;6.40;99.90;;;;;;5070872;28;20067;-63
2021/12/13 08:52:34;;;;;;;20.90;13.32;;;6.40;99.90;;;;;;5071656;28;20032;-64
2021/12/13 08:55:11;;;;;;;23.20;13.32;;;5.80;99.90;;;;;;5070875;28;20386;-64
2021/12/13 08:57:43;;;;;;;20.10;12.95;;;6.30;99.90;;;;;;5071412;28;20054;-63
2021/12/13 09:00:12;;;;;;;22.10;13.52;;;6.90;99.90;;;;;;5070433;28;20016;-66
2021/12/13 09:02:43;;;;;;;19.75;12.30;;;6.50;99.90;;;;;;5071495;28;20090;-64
2021/12/13 09:05:34;;;;;;;20.83;12.47;;;7.10;99.90;;;;;;5070802;28;20089;-65
2021/12/13 09:08:14;;;;;;;26.08;13.50;;;6.40;99.90;;;;;;5066387;28;20346;-65
2021/12/13 09:10:47;;;;;;;20.45;12.77;;;6.70;99.90;;;;;;5071476;28;20094;-65
2021/12/13 09:13:14;;;;;;;22.05;12.57;;;6.80;99.90;;;;;;5071272;28;20054;-64
2021/12/13 09:15:41;;;;;;;17.33;11.98;;;6.80;99.90;;;;;;5070760;28;20036;-63
2021/12/13 09:18:09;;;;;;;16.83;11.93;;;6.40;99.90;;;;;;5071286;28;20024;-64
2021/12/13 09:20:49;;;;;;;21.23;12.45;;;6.60;99.90;;;;;;5071114;28;20475;-66
2021/12/13 09:23:30;;;;;;;24.33;13.32;;;6.90;99.90;;;;;;5071317;28;20417;-64
2021/12/13 09:26:10;;;;;;;19.30;11.77;;;7.20;99.90;;;;;;5070955;28;20066;-62
2021/12/13 09:28:58;;;;;;;22.98;13.02;;;7.60;99.90;;;;;;5071698;28;20031;-65
2021/12/13 09:31:32;;;;;;;18.02;11.20;;;7.40;99.90;;;;;;5070938;28;20111;-65
2021/12/13 09:34:13;;;;;;;16.90;10.93;;;6.30;99.90;;;;;;5071089;28;20032;-66
2021/12/13 09:36:42;;;;;;;18.85;12.32;;;7.00;99.90;;;;;;5070480;28;20386;-66
2021/12/13 09:39:12;;;;;;;18.58;11.10;;;6.60;99.90;;;;;;5071090;28;20032;-64
2021/12/13 09:42:01;;;;;;;22.48;11.52;;;6.80;99.90;;;;;;5071482;28;20036;-64
2021/12/13 09:44:48;;;;;;;16.55;11.30;;;6.80;99.90;;;;;;5070817;28;20488;-65
2021/12/13 09:47:21;;;;;;;16.05;11.10;;;6.70;99.90;;;;;;5070813;28;20509;-66
2021/12/13 09:50:21;;;;;;;15.15;10.30;;;7.30;99.90;;;;;;5070882;28;20039;-65
2021/12/13 09:52:55;;;;;;;15.13;10.73;;;7.30;99.90;;;;;;5071234;28;20119;-65
2021/12/13 09:55:41;;;;;;;18.55;11.48;;;7.20;99.90;;;;;;5074325;28;20501;-65
2021/12/13 09:58:24;;;;;;;15.85;10.95;;;7.60;99.90;;;;;;5075339;28;20032;-64
2021/12/13 10:01:03;;;;;;;16.90;10.52;;;;;;;;;;5075012;28;20099;-67
2021/12/13 10:03:49;;;;;;;15.95;10.60;;;7.60;99.90;;;;;;5075404;28;20052;-65
2021/12/13 10:06:28;;;;;;;17.67;10.48;;;7.50;99.90;;;;;;5073655;28;20029;-65
2021/12/13 10:09:20;;;;;;;16.75;10.00;;;7.20;99.90;;;;;;5074387;28;20020;-66
2021/12/13 10:11:51;;;;;;;14.77;10.05;;;7.10;99.90;;;;;;5074921;28;20025;-65
2021/12/13 10:14:27;;;;;;;16.77;10.02;;;8.20;99.90;;;;;;5074266;28;20111;-65
2021/12/13 10:16:55;;;;;;;14.32;9.07;;;8.70;99.90;;;;;;5074473;28;20109;-64
2021/12/13 10:19:33;;;;;;;18.00;9.93;;;8.50;99.90;;;;;;5074203;28;20036;-65
2021/12/13 10:22:00;;;;;;;14.73;9.18;;;8.50;99.90;;;;;;5074655;28;20020;-65
2021/12/13 10:24:35;;;;;;;14.93;9.45;;;8.10;99.90;;;;;;5073699;28;20027;-65
2021/12/13 10:27:04;;;;;;;13.15;9.10;;;8.70;99.90;;;;;;5074662;28;20031;-66
2021/12/13 10:29:31;;;;;;;10.30;7.78;;;8.20;99.90;;;;;;5074762;28;20021;-65
2021/12/13 10:32:07;;;;;;;12.13;8.35;;;7.90;99.90;;;;;;5074633;28;20025;-65
2021/12/13 10:34:36;;;;;;;11.60;8.50;;;8.20;99.90;;;;;;5073089;28;20176;-66
2021/12/13 10:37:30;;;;;;;11.82;8.32;;;8.60;99.90;;;;;;5065614;28;20032;-65
2021/12/13 10:40:01;;;;;;;11.10;8.27;;;8.00;99.90;;;;;;5055933;28;20040;-66
2021/12/13 10:42:36;;;;;;;11.52;8.75;;;8.60;99.90;;;;;;5064989;28;20438;-66
2021/12/13 10:45:10;;;;;;;10.45;8.00;;;9.00;99.90;;;;;;5073043;28;20039;-66
2021/12/13 10:47:40;;;;;;;11.98;9.20;;;8.10;99.90;;;;;;5073914;28;20070;-65
2021/12/13 10:50:10;;;;;;;14.43;8.68;;;9.00;99.90;;;;;;5077314;23;20072;-63
2021/12/13 10:52:39;;;;;;;13.00;8.40;;;9.00;99.90;;;;;;5040257;28;20387;-63
2021/12/13 10:55:16;;;;;;;14.23;8.80;;;9.70;99.90;;;;;;5032943;28;20606;-64
2021/12/13 10:57:47;;;;;;;12.98;8.60;;;10.00;99.90;;;;;;5032366;28;20076;-61
2021/12/13 11:00:34;;;;;;;13.65;9.07;;;10.30;99.90;;;;;;5027698;28;20120;-62
2021/12/13 11:03:15;;;;;;;10.18;8.02;;;10.40;99.90;;;;;;5013006;28;20068;-65
2021/12/13 11:05:42;;;;;;;10.50;7.25;;;10.10;99.90;;;;;;5012461;28;20080;-64
2021/12/13 11:08:09;;;;;;;10.02;8.35;;;10.30;99.90;;;;;;5013544;28;20033;-64
2021/12/13 11:10:47;;;;;;;15.15;9.10;;;10.70;99.90;;;;;;5013319;28;20026;-63
2021/12/13 11:13:14;;;;;;;11.77;8.52;;;10.40;99.90;;;;;;5014068;28;20080;-64
2021/12/13 11:15:43;;;;;;;12.57;8.80;;;10.30;99.90;;;;;;5012756;28;20026;-63
2021/12/13 11:18:12;;;;;;;11.57;8.07;;;;;;;;;;5013204;28;20026;-63
2021/12/13 11:20:50;;;;;;;10.18;8.48;;;9.10;99.90;;;;;;5012957;28;20079;-63
2021/12/13 11:23:18;;;;;;;14.02;9.43;;;9.30;99.90;;;;;;5013460;28;20022;-64
2021/12/13 11:25:49;;;;;;;13.52;8.73;;;9.70;99.90;;;;;;5012527;28;20487;-65
2021/12/13 11:28:16;;;;;;;10.57;8.95;;;10.40;99.90;;;;;;5012962;28;20109;-65
2021/12/13 11:30:45;;;;;;;13.32;8.20;;;9.30;99.90;;;;;;5013005;28;20030;-64
2021/12/13 11:33:29;;;;;;;11.02;8.25;;;10.40;99.90;;;;;;5011692;28;20026;-64
2021/12/13 11:36:07;;;;;;;10.82;8.30;;;10.50;99.90;;;;;;5010700;28;20030;-64
2021/12/13 11:38:50;;;;;;;10.73;7.63;;;10.40;99.90;;;;;;5012601;28;20045;-64
2021/12/13 11:41:47;;;;;;;9.55;8.02;;;11.50;99.90;;;;;;5012894;28;20022;-64
2021/12/13 11:44:40;;;;;;;10.82;6.68;;;12.30;99.90;;;;;;5013156;28;20081;-63
2021/12/13 11:47:40;;;;;;;10.95;8.35;;;12.80;99.90;;;;;;5012852;28;20029;-64
2021/12/13 11:50:08;;;;;;;8.38;6.30;;;12.70;99.90;;;;;;5012129;28;20026;-63
2021/12/13 11:52:59;;;;;;;11.05;8.20;;;12.20;99.90;;;;;;5011703;28;20076;-63
2021/12/13 11:55:39;;;;;;;10.15;7.50;;;11.80;99.90;;;;;;5012693;28;20022;-64
2021/12/13 11:58:13;;;;;;;10.02;8.20;;;11.60;99.90;;;;;;5013298;28;20431;-64
2021/12/13 12:01:02;;;;;;;10.25;8.23;;;10.80;99.90;;;;;;5012425;28;20109;-65
2021/12/13 12:03:52;;;;;;;9.57;7.53;;;11.10;99.90;;;;;;5012409;28;20503;-64
2021/12/13 12:06:56;;;;;;;9.82;7.20;;;10.80;99.90;;;;;;5011642;28;20026;-63
2021/12/13 12:09:45;;;;;;;12.55;7.18;;;10.60;99.90;;;;;;5012664;28;20409;-63
2021/12/13 12:12:44;;;;;;;9.68;6.72;;;10.10;99.90;;;;;;5012613;28;20037;-64
2021/12/13 12:15:10;;;;;;;11.15;7.00;;;10.50;99.90;;;;;;5011963;28;20029;-64
2021/12/13 12:17:38;;;;;;;8.25;6.10;;;10.50;99.90;;;;;;5012266;28;20104;-65
2021/12/13 12:20:11;;;;;;;7.32;6.25;;;10.90;99.90;;;;;;5011792;28;20033;-64
2021/12/13 12:22:51;;;;;;;8.88;5.78;;;11.00;99.90;;;;;;5012194;28;20468;-63
2021/12/13 12:25:22;;;;;;;12.00;6.90;;;10.70;99.90;;;;;;5012568;28;20076;-64
2021/12/13 12:27:50;;;;;;;7.25;6.10;;;11.00;99.90;;;;;;5012169;28;20022;-64
2021/12/13 12:30:21;;;;;;;13.95;6.13;;;11.90;99.90;;;;;;5012525;28;20026;-63
2021/12/13 12:32:54;;;;;;;8.30;5.47;;;;;;;;;;5012122;28;20120;-64
2021/12/13 12:35:24;;;;;;;6.70;5.53;;;11.20;99.90;;;;;;5011106;28;20033;-65
2021/12/13 12:38:27;;;;;;;6.22;5.20;;;10.80;99.90;;;;;;5011939;28;20034;-63
2021/12/13 12:41:11;;;;;;;6.55;4.75;;;11.00;99.90;;;;;;5011867;28;20420;-63
2021/12/13 12:43:51;;;;;;;5.45;4.95;;;10.50;99.90;;;;;;5012544;28;20034;-63
2021/12/13 12:46:21;;;;;;;6.75;5.43;;;11.50;99.90;;;;;;5012253;28;20403;-63
2021/12/13 12:48:53;;;;;;;5.25;4.70;;;10.80;99.90;;;;;;5011791;28;20488;-64
2021/12/13 12:51:21;;;;;;;;;;;9.40;99.90;;;;;;5011985;28;20065;-64
2021/12/13 12:53:58;;;;;;;8.63;6.00;;;11.10;99.90;;;;;;5011827;28;19906;-62
2021/12/13 12:56:32;;;;;;;5.93;5.03;;;10.90;99.90;;;;;;5011442;28;20029;-62
2021/12/13 12:59:09;;;;;;;8.18;5.78;;;11.50;99.90;;;;;;5011724;28;20450;-63
2021/12/13 13:01:55;;;;;;;6.38;5.15;;;11.60;99.90;;;;;;5011767;28;20018;-63
2021/12/13 13:04:59;;;;;;;5.80;4.85;;;10.80;99.90;;;;;;5011409;28;20387;-64
2021/12/13 13:07:28;;;;;;;5.90;5.07;;;11.40;99.90;;;;;;5003117;28;20046;-63
2021/12/13 13:12:47;;;;;;;5.80;4.07;;;12.00;99.90;;;;;;5012018;28;20033;-63
2021/12/13 13:15:20;;;;;;;7.32;4.45;;;10.40;99.90;;;;;;5011519;28;20293;-63
2021/12/13 13:17:51;;;;;;;7.07;5.47;;;10.30;99.90;;;;;;5011919;28;20499;-63
2021/12/13 13:20:46;;;;;;;8.55;5.90;;;10.50;99.90;;;;;;5010981;28;20014;-63
2021/12/13 13:23:13;;;;;;;8.25;6.03;;;10.30;99.90;;;;;;5002568;28;20058;-64
2021/12/13 13:25:45;;;;;;;5.75;5.13;;;10.20;99.90;;;;;;5011004;28;20109;-65
2021/12/13 13:28:37;;;;;;;8.95;6.30;;;10.30;99.90;;;;;;5012293;28;20037;-64
2021/12/13 13:31:03;;;;;;;7.50;5.73;;;10.40;99.90;;;;;;5015756;28;20443;-63
2021/12/13 13:33:54;;;;;;;9.18;5.13;;;10.30;99.90;;;;;;5015075;28;20029;-64
2021/12/13 13:36:31;;;;;;;8.95;5.85;;;10.50;99.90;;;;;;5014629;28;20049;-64
2021/12/13 13:39:09;;;;;;;10.35;6.20;;;9.60;99.90;;;;;;5015117;28;20036;-64
2021/12/13 13:41:36;;;;;;;8.70;5.80;;;10.00;99.90;;;;;;5015169;28;20116;-64
2021/12/13 13:44:11;;;;;;;8.10;5.93;;;9.90;99.90;;;;;;5015195;28;20029;-63
2021/12/13 13:46:39;;;;;;;8.65;6.53;;;10.40;99.90;;;;;;5014473;28;20112;-64
2021/12/13 13:49:05;;;;;;;8.70;6.68;;;9.90;99.90;;;;;;5015246;28;20030;-64